Time;durP1;ratioP1;P1;durP2;ratioP2;P2;SDS_P1;SDS_P2;PMS_P1;PMS_P2;Temp;Humidity;BMP_temperature;BMP_pressure;BME280_temperature;BME280_humidity;BME280_pressure;Samples;Min_cycle;Max_cycle;Signal;HPM_P1;HPM_P2
2022/05/31 00:02:50;;;;;;;9.52;5.40;;;11.10;99.90;;;;;;6714564;88;20939;-77
2022/05/31 00:12:51;;;;;;;8.45;4.80;;;11.20;99.90;;;;;;6718636;88;20229;-76
2022/05/31 00:32:55;;;;;;;8.50;5.07;;;10.70;99.90;;;;;;6753890;88;20224;-80
2022/05/31 00:43:02;;;;;;;8.30;4.80;;;10.90;99.90;;;;;;6752325;88;20359;-81
2022/05/31 00:53:12;;;;;;;6.97;4.57;;;10.60;99.90;;;;;;6752783;88;20193;-81
2022/05/31 01:03:15;;;;;;;7.95;4.53;;;10.70;99.90;;;;;;6754162;88;20551;-80
2022/05/31 01:13:17;;;;;;;6.35;4.53;;;10.90;99.90;;;;;;6753986;88;20447;-82
2022/05/31 01:23:18;;;;;;;8.50;4.30;;;10.80;99.90;;;;;;6749933;87;20172;-82
2022/05/31 01:33:36;;;;;;;6.30;4.30;;;10.70;99.90;;;;;;6755168;88;20218;-83
2022/05/31 01:43:37;;;;;;;8.02;5.03;;;11.10;99.90;;;;;;6740006;88;20538;-82
2022/05/31 01:53:40;;;;;;;8.95;5.07;;;11.00;99.90;;;;;;6757219;88;20187;-80
2022/05/31 02:03:43;;;;;;;6.37;4.50;;;11.00;99.90;;;;;;6755509;88;20204;-81
2022/05/31 02:13:45;;;;;;;7.85;4.32;;;11.00;99.90;;;;;;6751495;88;20617;-81
2022/05/31 02:23:46;;;;;;;7.85;4.90;;;10.70;99.90;;;;;;6751115;88;20302;-81
2022/05/31 02:33:46;;;;;;;7.85;4.05;;;11.10;99.90;;;;;;6751685;88;20196;-81
2022/05/31 02:43:47;;;;;;;7.77;4.37;;;11.30;99.90;;;;;;6752642;88;20183;-80
2022/05/31 02:53:47;;;;;;;8.00;4.60;;;11.00;99.90;;;;;;6753677;88;20652;-82
2022/05/31 03:03:48;;;;;;;7.03;3.65;;;11.10;99.90;;;;;;6754200;88;20240;-81
2022/05/31 03:13:52;;;;;;;6.65;3.60;;;11.00;99.90;;;;;;6735401;88;20319;-81
2022/05/31 03:23:58;;;;;;;7.55;3.58;;;10.90;99.90;;;;;;6745991;88;20188;-81
2022/05/31 03:33:58;;;;;;;6.30;3.63;;;10.90;99.90;;;;;;6752501;88;20231;-81
2022/05/31 03:43:59;;;;;;;6.80;3.62;;;10.90;99.90;;;;;;6751927;88;20185;-80
2022/05/31 03:53:59;;;;;;;5.90;4.05;;;10.60;99.90;;;;;;6747214;88;20202;-81
2022/05/31 04:04:03;;;;;;;6.53;3.90;;;10.50;99.90;;;;;;6748324;88;20192;-81
2022/05/31 04:14:03;;;;;;;6.62;3.70;;;10.60;99.90;;;;;;6728914;88;20220;-81
2022/05/31 04:24:08;;;;;;;5.90;3.45;;;10.90;99.90;;;;;;6735889;88;20197;-82
2022/05/31 04:34:09;;;;;;;5.77;3.70;;;10.90;99.90;;;;;;6749609;88;20181;-81
2022/05/31 04:44:09;;;;;;;6.90;3.70;;;10.90;99.90;;;;;;6742379;88;20730;-81
2022/05/31 04:54:10;;;;;;;7.40;3.80;;;11.10;99.90;;;;;;6742589;88;20180;-81
2022/05/31 05:04:12;;;;;;;7.35;4.10;;;11.10;99.90;;;;;;6756195;87;20314;-81
2022/05/31 05:14:12;;;;;;;8.57;3.87;;;11.00;99.90;;;;;;6757705;88;20219;-82
2022/05/31 05:24:13;;;;;;;6.78;3.80;;;11.30;99.90;;;;;;6745619;88;20362;-79
2022/05/31 05:34:13;;;;;;;5.22;3.35;;;11.30;99.90;;;;;;6733116;88;20197;-78
2022/05/31 05:44:14;;;;;;;9.10;3.30;;;11.60;99.90;;;;;;6741748;88;20293;-79
2022/05/31 05:54:14;;;;;;;5.07;2.70;;;11.60;99.90;;;;;;6739664;88;20256;-78
2022/05/31 06:04:32;;;;;;;5.10;2.70;;;11.80;99.90;;;;;;6742096;88;20211;-78
2022/05/31 06:14:41;;;;;;;5.37;2.55;;;12.60;99.90;;;;;;6731765;88;20628;-78
2022/05/31 06:24:42;;;;;;;5.65;2.40;;;12.60;99.90;;;;;;6746902;77;20218;-77
2022/05/31 06:34:45;;;;;;;4.05;2.12;;;12.80;99.90;;;;;;6735133;88;20341;-78
2022/05/31 06:44:45;;;;;;;5.47;2.10;;;12.90;99.90;;;;;;6729324;88;20267;-76
2022/05/31 07:05:06;;;;;;;6.10;1.95;;;13.20;99.90;;;;;;6727551;88;20181;-77
2022/05/31 07:15:07;;;;;;;6.60;2.33;;;13.20;99.90;;;;;;6715758;88;20206;-77
2022/05/31 07:25:09;;;;;;;3.83;1.95;;;13.20;99.90;;;;;;6722916;88;20214;-78
2022/05/31 07:35:10;;;;;;;4.28;1.90;;;13.70;99.90;;;;;;6732478;88;20362;-76
2022/05/31 07:45:11;;;;;;;2.95;1.67;;;13.70;99.90;;;;;;6731557;88;20202;-77
2022/05/31 07:55:12;;;;;;;5.13;2.50;;;13.70;99.90;;;;;;6731547;88;20268;-77
2022/05/31 08:05:13;;;;;;;6.32;2.90;;;13.70;99.90;;;;;;6727182;88;20258;-81
2022/05/31 08:15:13;;;;;;;7.62;2.97;;;14.00;99.90;;;;;;6722375;88;20250;-78
2022/05/31 08:25:14;;;;;;;5.73;2.73;;;14.10;99.90;;;;;;6734164;88;20268;-77
2022/05/31 08:35:15;;;;;;;6.90;2.75;;;14.00;99.90;;;;;;6735138;88;20542;-76
2022/05/31 08:45:29;;;;;;;6.12;2.45;;;14.00;99.90;;;;;;6739588;88;20196;-78
2022/05/31 09:05:55;;;;;;;5.20;2.53;;;14.50;99.90;;;;;;6719924;88;20170;-77
2022/05/31 09:16:09;;;;;;;5.00;2.17;;;15.30;99.90;;;;;;6721373;88;20227;-76
2022/05/31 09:26:10;;;;;;;5.85;2.22;;;15.90;99.90;;;;;;6718364;88;20741;-77
2022/05/31 09:36:26;;;;;;;6.32;2.45;;;16.00;99.90;;;;;;6720107;88;20210;-77
2022/05/31 09:46:40;;;;;;;4.70;2.37;;;16.00;99.90;;;;;;6719713;88;20601;-77
2022/05/31 10:07:06;;;;;;;7.25;2.22;;;16.60;99.90;;;;;;6722627;88;20177;-79
2022/05/31 10:17:15;;;;;;;5.72;2.30;;;18.20;99.90;;;;;;6727045;88;20656;-79
2022/05/31 10:27:22;;;;;;;6.85;2.35;;;19.20;99.90;;;;;;6726119;88;20211;-79
2022/05/31 10:37:26;;;;;;;6.60;2.15;;;20.80;98.70;;;;;;6729349;88;20173;-78
2022/05/31 10:47:28;;;;;;;5.22;1.80;;;21.70;96.60;;;;;;6726241;88;20306;-78
2022/05/31 10:57:48;;;;;;;4.68;1.85;;;21.40;95.20;;;;;;6726116;88;20213;-79
2022/05/31 11:18:46;;;;;;;3.95;1.95;;;21.50;94.20;;;;;;6729309;88;20656;-78
2022/05/31 11:28:54;;;;;;;4.72;1.62;;;20.80;94.30;;;;;;6729286;88;20319;-79
2022/05/31 11:39:33;;;;;;;4.05;1.70;;;21.10;95.60;;;;;;6733830;88;20173;-78
2022/05/31 11:49:39;;;;;;;3.40;2.00;;;20.70;94.50;;;;;;6735363;88;20224;-79
2022/05/31 12:00:05;;;;;;;3.28;1.55;;;20.60;95.00;;;;;;6730020;88;20181;-78
2022/05/31 12:10:17;;;;;;;6.65;1.70;;;21.20;95.00;;;;;;6729088;88;20304;-79
2022/05/31 12:20:30;;;;;;;3.35;1.40;;;22.90;92.90;;;;;;6729916;88;20211;-78
2022/05/31 12:30:36;;;;;;;3.95;1.33;;;23.00;90.80;;;;;;6726337;88;20205;-79
2022/05/31 12:40:41;;;;;;;2.70;1.20;;;24.50;90.10;;;;;;6731555;88;20716;-79
2022/05/31 12:50:55;;;;;;;2.30;1.10;;;26.10;83.50;;;;;;6724743;88;20285;-78
2022/05/31 13:01:05;;;;;;;4.37;1.30;;;25.60;82.40;;;;;;6727088;88;20194;-78
2022/05/31 13:21:30;;;;;;;4.55;1.98;;;23.30;83.00;;;;;;6723355;88;20251;-78
2022/05/31 13:31:33;;;;;;;3.83;1.40;;;22.60;82.00;;;;;;6728498;88;20253;-78
2022/05/31 13:41:46;;;;;;;5.45;1.35;;;22.60;80.70;;;;;;6727175;88;20341;-79
2022/05/31 13:51:58;;;;;;;2.90;1.70;;;23.40;80.10;;;;;;6732563;88;20695;-78
2022/05/31 14:02:01;;;;;;;1.83;1.25;;;24.40;75.90;;;;;;6728212;88;20177;-78
2022/05/31 14:12:06;;;;;;;1.93;1.20;;;23.10;76.80;;;;;;6725010;88;20186;-78
2022/05/31 14:22:27;;;;;;;2.80;1.20;;;24.00;75.70;;;;;;6729695;88;20207;-78
2022/05/31 14:32:33;;;;;;;5.03;1.90;;;23.30;75.40;;;;;;6729401;88;20252;-79
2022/05/31 14:42:38;;;;;;;3.15;1.83;;;22.80;76.50;;;;;;6729652;88;20291;-78
2022/05/31 14:52:51;;;;;;;5.97;2.10;;;21.80;80.00;;;;;;6724775;88;20714;-78
2022/05/31 15:02:52;;;;;;;3.78;1.77;;;22.30;79.50;;;;;;6722639;88;20319;-78
2022/05/31 15:23:20;;;;;;;2.47;1.00;;;22.20;73.70;;;;;;6743082;88;20184;-78
2022/05/31 15:33:20;;;;;;;2.95;0.98;;;23.40;69.60;;;;;;6748154;88;20206;-78
2022/05/31 15:53:40;;;;;;;2.37;1.23;;;21.80;73.60;;;;;;6746004;88;20167;-80
2022/05/31 16:03:40;;;;;;;3.05;1.00;;;20.90;75.10;;;;;;6745018;88;20203;-79
2022/05/31 16:13:41;;;;;;;3.10;1.12;;;20.90;74.80;;;;;;6737015;88;20214;-77
2022/05/31 16:23:42;;;;;;;2.45;1.20;;;23.80;73.00;;;;;;6741997;88;20203;-79
2022/05/31 16:33:43;;;;;;;3.05;1.17;;;22.80;72.10;;;;;;6732968;88;20178;-78
2022/05/31 16:43:55;;;;;;;2.67;1.40;;;21.30;74.80;;;;;;6731368;88;20823;-77
2022/05/31 16:54:02;;;;;;;9.60;3.58;;;20.40;75.90;;;;;;6738154;88;20343;-82
2022/05/31 17:04:03;;;;;;;3.42;1.95;;;20.80;76.90;;;;;;6738421;88;20207;-79
2022/05/31 17:24:23;;;;;;;4.12;1.50;;;20.10;79.10;;;;;;6733791;88;20545;-80
2022/05/31 17:44:29;;;;;;;3.10;1.58;;;20.00;81.30;;;;;;6752016;88;20252;-81
2022/05/31 17:54:31;;;;;;;2.83;1.50;;;20.10;85.30;;;;;;6745426;88;20206;-78
2022/05/31 18:04:32;;;;;;;6.37;2.58;;;20.00;84.70;;;;;;6733625;88;20206;-79
2022/05/31 18:14:34;;;;;;;4.15;1.58;;;20.50;84.90;;;;;;6733750;88;20180;-76
2022/05/31 18:24:38;;;;;;;2.75;1.60;;;20.80;83.20;;;;;;6732988;88;20219;-77
2022/05/31 18:34:40;;;;;;;4.27;1.60;;;20.10;85.00;;;;;;6729440;88;20318;-76
2022/05/31 18:44:42;;;;;;;3.55;1.70;;;19.50;86.00;;;;;;6728913;88;20290;-76
2022/05/31 18:54:43;;;;;;;4.80;2.00;;;18.90;88.40;;;;;;6725268;88;20220;-76
2022/05/31 19:04:53;;;;;;;3.58;1.65;;;18.00;91.90;;;;;;6714950;88;20278;-78
2022/05/31 19:14:54;;;;;;;6.18;1.90;;;17.80;92.80;;;;;;6715001;88;20181;-77
2022/05/31 19:24:56;;;;;;;4.22;2.12;;;17.50;95.30;;;;;;6716250;88;20168;-77
2022/05/31 19:34:57;;;;;;;4.97;1.95;;;16.90;97.10;;;;;;6721213;88;20250;-77
2022/05/31 19:44:58;;;;;;;4.22;2.20;;;16.50;98.90;;;;;;6735399;88;20211;-76
2022/05/31 19:55:03;;;;;;;5.97;2.00;;;16.30;99.60;;;;;;6728863;88;20186;-78
2022/05/31 20:05:05;;;;;;;5.30;1.80;;;16.00;99.90;;;;;;6714984;88;20193;-78
2022/05/31 20:15:09;;;;;;;4.70;2.28;;;15.80;99.90;;;;;;6717786;88;20217;-78
2022/05/31 20:25:12;;;;;;;4.12;2.00;;;15.50;99.90;;;;;;6717255;88;20759;-78
2022/05/31 20:35:14;;;;;;;3.03;1.80;;;15.30;99.90;;;;;;6719316;88;20185;-77
2022/05/31 20:45:16;;;;;;;2.87;1.77;;;15.10;99.90;;;;;;6733983;88;20265;-77
2022/05/31 20:55:24;;;;;;;4.85;2.15;;;15.20;99.90;;;;;;6733458;88;20321;-77
2022/05/31 21:05:24;;;;;;;7.35;2.60;;;14.90;99.90;;;;;;6746179;88;20192;-77
2022/05/31 21:15:25;;;;;;;3.95;1.87;;;14.60;99.90;;;;;;6733914;88;20216;-78
2022/05/31 21:25:37;;;;;;;5.62;1.92;;;14.60;99.90;;;;;;6733884;88;20309;-77
2022/05/31 21:35:38;;;;;;;3.55;1.70;;;14.70;99.90;;;;;;6724144;88;20193;-77
2022/05/31 21:45:39;;;;;;;3.30;1.75;;;14.70;99.90;;;;;;6735710;88;20192;-77
2022/05/31 21:55:41;;;;;;;2.87;1.60;;;14.60;99.90;;;;;;6735116;88;20206;-76
2022/05/31 22:05:42;;;;;;;2.28;1.20;;;14.40;99.90;;;;;;6731186;88;20243;-76
2022/05/31 22:15:43;;;;;;;2.97;1.30;;;14.00;99.90;;;;;;6731016;88;20215;-77
2022/05/31 22:25:43;;;;;;;2.72;1.35;;;12.80;99.90;;;;;;6734874;88;20623;-77
2022/05/31 22:35:51;;;;;;;2.00;1.30;;;12.00;99.90;;;;;;6734351;88;20255;-77
2022/05/31 22:45:52;;;;;;;2.47;1.87;;;12.10;99.90;;;;;;6716016;88;20202;-78
2022/05/31 22:55:55;;;;;;;2.53;1.52;;;11.90;99.90;;;;;;6715697;88;20197;-77
2022/05/31 23:05:56;;;;;;;3.47;1.90;;;12.20;99.90;;;;;;6716727;88;20621;-79
2022/05/31 23:16:00;;;;;;;3.80;2.20;;;12.00;99.90;;;;;;6726044;88;20204;-77
2022/05/31 23:26:01;;;;;;;3.37;1.70;;;11.90;99.90;;;;;;6728377;88;20216;-77
2022/05/31 23:36:02;;;;;;;6.40;1.95;;;12.40;99.90;;;;;;6715656;88;20194;-76
2022/05/31 23:46:04;;;;;;;4.70;1.90;;;12.20;99.90;;;;;;6715958;88;20946;-77
2022/05/31 23:56:06;;;;;;;5.03;1.83;;;12.10;99.90;;;;;;6715895;88;20185;-78
